Time;durP1;ratioP1;P1;durP2;ratioP2;P2;SDS_P1;SDS_P2;PMS_P1;PMS_P2;Temp;Humidity;BMP_temperature;BMP_pressure;BME280_temperature;BME280_humidity;BME280_pressure;Samples;Min_cycle;Max_cycle;Signal;HPM_P1;HPM_P2
2023/10/29 00:00:57;;;;;;;;;;;;;;;8.85;100.00;95175.28;5087263;28;19987;-69
2023/10/29 00:03:23;;;;;;;;;;;;;;;8.81;100.00;95191.69;5087008;28;19959;-69
2023/10/29 00:05:48;;;;;;;;;;;;;;;8.78;100.00;95189.53;5087063;28;19961;-69
2023/10/29 00:08:14;;;;;;;;;;;;;;;8.74;100.00;95197.84;5087149;28;20017;-69
2023/10/29 00:10:40;;;;;;;;;;;;;;;8.72;100.00;95184.22;5087078;28;20081;-70
2023/10/29 00:13:06;;;;;;;;;;;;;;;8.71;100.00;95198.34;5086454;28;19981;-70
2023/10/29 00:15:32;;;;;;;;;;;;;;;8.69;100.00;95192.56;5086920;28;19951;-70
2023/10/29 00:17:58;;;;;;;;;;;;;;;8.67;100.00;95192.00;5086839;28;19962;-72
2023/10/29 00:20:24;;;;;;;;;;;;;;;8.66;100.00;95187.00;5086337;28;19980;-69
2023/10/29 00:22:50;;;;;;;;;;;;;;;8.67;100.00;95193.81;5086479;28;19954;-70
2023/10/29 00:25:16;;;;;;;;;;;;;;;8.66;100.00;95190.41;5086416;28;19954;-70
2023/10/29 00:27:41;;;;;;;;;;;;;;;8.65;100.00;95183.59;5086577;28;20015;-70
2023/10/29 00:30:07;;;;;;;;;;;;;;;8.66;100.00;95190.41;5085828;28;19956;-70
2023/10/29 00:32:33;;;;;;;;;;;;;;;8.67;100.00;95178.13;5086508;28;19953;-69
2023/10/29 00:34:59;;;;;;;;;;;;;;;8.66;100.00;95181.78;5086536;28;19994;-70
2023/10/29 00:37:25;;;;;;;;;;;;;;;8.64;100.00;95182.00;5086629;28;20209;-70
2023/10/29 00:39:51;;;;;;;;;;;;;;;8.65;100.00;95174.94;5086587;28;19953;-78
2023/10/29 00:42:17;;;;;;;;;;;;;;;8.65;100.00;95170.53;5086385;28;19962;-78
2023/10/29 00:44:42;;;;;;;;;;;;;;;8.66;100.00;95179.16;5086271;28;20149;-77
2023/10/29 00:47:08;;;;;;;;;;;;;;;8.66;100.00;95172.09;5086352;28;19952;-78
2023/10/29 00:49:35;;;;;;;;;;;;;;;8.68;100.00;95166.66;5085797;28;20274;-77
2023/10/29 00:52:02;;;;;;;;;;;;;;;8.67;100.00;95173.72;5085106;28;20282;-78
2023/10/29 00:54:28;;;;;;;;;;;;;;;8.68;100.00;95170.06;5086157;28;20153;-85
2023/10/29 00:56:54;;;;;;;;;;;;;;;8.69;100.00;95174.25;5085839;28;19965;-70
2023/10/29 00:59:20;;;;;;;;;;;;;;;8.70;100.00;95173.22;5085926;28;19958;-70
2023/10/29 01:01:47;;;;;;;;;;;;;;;8.69;100.00;95176.88;5085984;28;19957;-69
2023/10/29 01:04:13;;;;;;;;;;;;;;;8.71;100.00;95179.22;5085881;28;19959;-70
2023/10/29 01:06:40;;;;;;;;;;;;;;;8.72;100.00;95181.63;5085904;28;20022;-71
2023/10/29 01:09:10;;;;;;;;;;;;;;;8.71;100.00;95168.78;5086110;28;19957;-71
2023/10/29 01:11:36;;;;;;;;;;;;;;;8.70;100.00;95156.75;5085907;28;19965;-76
2023/10/29 01:14:02;;;;;;;;;;;;;;;8.67;100.00;95142.34;5085378;28;20249;-73
2023/10/29 01:16:28;;;;;;;;;;;;;;;8.67;100.00;95131.06;5085283;28;19961;-72
2023/10/29 01:18:57;;;;;;;;;;;;;;;8.68;100.00;95143.91;5085929;28;19960;-73
2023/10/29 01:21:24;;;;;;;;;;;;;;;8.68;100.00;95149.16;5085617;28;20215;-73
2023/10/29 01:23:49;;;;;;;;;;;;;;;8.68;100.00;95140.50;5085319;28;20167;-72
2023/10/29 01:26:15;;;;;;;;;;;;;;;8.68;100.00;95124.84;5085353;28;19950;-73
2023/10/29 01:28:41;;;;;;;;;;;;;;;8.66;100.00;95130.28;5085317;28;19961;-73
2023/10/29 01:31:07;;;;;;;;;;;;;;;8.65;100.00;95128.72;5085366;28;19956;-72
2023/10/29 01:33:33;;;;;;;;;;;;;;;8.64;100.00;95134.97;5085377;28;19963;-74
2023/10/29 01:35:59;;;;;;;;;;;;;;;8.63;100.00;95133.41;5085251;28;19954;-74
2023/10/29 01:38:24;;;;;;;;;;;;;;;8.63;100.00;95128.16;5085502;28;20027;-74
2023/10/29 01:40:50;;;;;;;;;;;;;;;8.64;100.00;95134.19;5084795;28;19939;-74
2023/10/29 01:43:16;;;;;;;;;;;;;;;8.63;100.00;95124.75;5085375;28;20220;-73
2023/10/29 01:45:42;;;;;;;;;;;;;;;8.60;100.00;95135.69;5085389;28;20025;-73
2023/10/29 01:48:08;;;;;;;;;;;;;;;8.57;100.00;95121.28;5084588;28;20034;-73
2023/10/29 01:50:35;;;;;;;;;;;;;;;8.53;100.00;95126.19;5084825;28;19951;-70
2023/10/29 01:53:01;;;;;;;;;;;;;;;8.52;100.00;95129.03;5084737;28;20151;-71
2023/10/29 01:55:27;;;;;;;;;;;;;;;8.53;100.00;95114.94;5084753;28;19954;-70
2023/10/29 01:57:53;;;;;;;;;;;;;;;8.51;100.00;95117.00;5084925;28;19964;-71
2023/10/29 02:00:22;;;;;;;;;;;;;;;8.49;100.00;95119.84;5084985;28;20234;-70
2023/10/29 02:02:49;;;;;;;;;;;;;;;8.46;100.00;95116.91;5084752;28;19959;-71
2023/10/29 02:05:15;;;;;;;;;;;;;;;8.44;100.00;95111.13;5084670;28;19954;-70
2023/10/29 02:07:41;;;;;;;;;;;;;;;8.40;100.00;95102.97;5084828;28;20144;-73
2023/10/29 02:10:07;;;;;;;;;;;;;;;8.37;100.00;95097.41;5084308;28;20013;-80
2023/10/29 02:12:33;;;;;;;;;;;;;;;8.33;100.00;95100.47;5083804;28;19955;-77
2023/10/29 02:14:59;;;;;;;;;;;;;;;8.29;100.00;95095.97;5084372;28;19960;-78
2023/10/29 02:17:27;;;;;;;;;;;;;;;8.29;100.00;95104.63;5084058;28;20274;-77
2023/10/29 02:19:55;;;;;;;;;;;;;;;8.27;100.00;95103.25;5084323;28;19959;-79
2023/10/29 02:22:24;;;;;;;;;;;;;;;8.22;100.00;95101.34;5084365;28;19956;-79
2023/10/29 02:24:50;;;;;;;;;;;;;;;8.21;100.00;95101.56;5084420;28;19969;-73
2023/10/29 02:27:17;;;;;;;;;;;;;;;8.18;100.00;95105.44;5084669;28;19961;-71
2023/10/29 02:29:43;;;;;;;;;;;;;;;8.13;100.00;95100.94;5084491;28;20121;-73
2023/10/29 02:32:09;;;;;;;;;;;;;;;8.10;100.00;95090.94;5084516;28;19957;-73
2023/10/29 02:34:35;;;;;;;;;;;;;;;8.07;100.00;95091.44;5084468;28;19978;-73
2023/10/29 02:37:01;;;;;;;;;;;;;;;8.05;100.00;95090.88;5084411;28;20253;-73
2023/10/29 02:39:26;;;;;;;;;;;;;;;8.00;100.00;95088.19;5084680;28;20153;-73
2023/10/29 02:41:52;;;;;;;;;;;;;;;8.00;100.00;95084.78;5084384;28;19955;-74
2023/10/29 02:44:18;;;;;;;;;;;;;;;7.99;100.00;95088.41;5083262;28;19963;-80
2023/10/29 02:46:44;;;;;;;;;;;;;;;7.97;100.00;95090.47;5083872;28;19958;-79
2023/10/29 02:49:10;;;;;;;;;;;;;;;7.96;100.00;95094.91;5084027;28;20218;-80
2023/10/29 02:51:36;;;;;;;;;;;;;;;7.94;100.00;95091.75;5084059;28;19959;-80
2023/10/29 02:54:02;;;;;;;;;;;;;;;7.92;100.00;95084.13;5084798;28;20255;-79
2023/10/29 02:56:28;;;;;;;;;;;;;;;7.91;100.00;95095.59;5086708;28;19958;-79
2023/10/29 02:58:53;;;;;;;;;;;;;;;7.91;100.00;95100.81;5088296;28;20011;-78
2023/10/29 03:01:19;;;;;;;;;;;;;;;7.90;100.00;95093.22;5088476;28;19957;-78
2023/10/29 03:03:45;;;;;;;;;;;;;;;7.88;100.00;95098.69;5088334;28;20002;-70
2023/10/29 03:06:11;;;;;;;;;;;;;;;7.86;100.00;95092.91;5086841;28;19964;-69
2023/10/29 03:08:37;;;;;;;;;;;;;;;7.85;100.00;95083.50;5087317;28;20113;-69
2023/10/29 03:11:03;;;;;;;;;;;;;;;7.85;100.00;95087.91;5088291;28;19967;-69
2023/10/29 03:13:29;;;;;;;;;;;;;;;7.84;100.00;95091.56;5088213;28;19953;-69
2023/10/29 03:15:56;;;;;;;;;;;;;;;7.83;100.00;95097.78;5087735;28;19961;-69
2023/10/29 03:18:21;;;;;;;;;;;;;;;7.81;100.00;95103.25;5088100;28;20153;-70
2023/10/29 03:20:48;;;;;;;;;;;;;;;7.80;100.00;95093.81;5088080;28;19954;-73
2023/10/29 03:23:14;;;;;;;;;;;;;;;7.79;100.00;95099.28;5087688;28;19953;-70
2023/10/29 03:25:40;;;;;;;;;;;;;;;7.76;100.00;95094.53;5087470;28;19960;-70
2023/10/29 03:28:06;;;;;;;;;;;;;;;7.74;100.00;95094.75;5087845;28;20116;-70
2023/10/29 03:30:31;;;;;;;;;;;;;;;7.73;100.00;95093.19;5087864;28;19987;-70
2023/10/29 03:32:59;;;;;;;;;;;;;;;7.71;100.00;95098.63;5087722;28;19959;-70
2023/10/29 03:35:27;;;;;;;;;;;;;;;7.71;100.00;95097.84;5087661;28;19962;-69
2023/10/29 03:37:54;;;;;;;;;;;;;;;7.69;100.00;95095.47;5087069;28;19960;-70
2023/10/29 03:40:20;;;;;;;;;;;;;;;7.67;100.00;95101.94;5070025;28;20274;-69
2023/10/29 03:42:46;;;;;;;;;;;;;;;7.65;100.00;95107.38;5087589;28;19982;-73
2023/10/29 03:45:12;;;;;;;;;;;;;;;7.66;100.00;95100.34;5086390;28;19991;-74
2023/10/29 03:47:38;;;;;;;;;;;;;;;7.65;100.00;95088.34;5085916;28;20252;-74
2023/10/29 03:50:04;;;;;;;;;;;;;;;7.63;100.00;95090.38;5087142;28;19983;-74
2023/10/29 03:52:30;;;;;;;;;;;;;;;7.62;100.00;95080.97;5087273;28;20261;-73
2023/10/29 03:54:56;;;;;;;;;;;;;;;7.65;100.00;95073.47;5086758;28;19960;-73
2023/10/29 03:57:21;;;;;;;;;;;;;;;7.68;100.00;95073.00;5087253;28;20008;-69
2023/10/29 03:59:47;;;;;;;;;;;;;;;7.75;100.00;95072.06;5087180;28;19964;-78
2023/10/29 04:02:13;;;;;;;;;;;;;;;7.80;100.00;95072.16;5087189;28;19967;-72
2023/10/29 04:04:39;;;;;;;;;;;;;;;7.83;100.00;95064.66;5086467;28;19953;-73
2023/10/29 04:07:05;;;;;;;;;;;;;;;7.88;100.00;95051.69;5086497;28;20017;-72
2023/10/29 04:09:31;;;;;;;;;;;;;;;7.94;100.00;95044.75;5086648;28;19965;-74
2023/10/29 04:11:59;;;;;;;;;;;;;;;7.99;100.00;95044.03;5086664;28;20316;-72
2023/10/29 04:14:24;;;;;;;;;;;;;;;8.02;100.00;95044.38;5087040;28;19962;-72
2023/10/29 04:16:50;;;;;;;;;;;;;;;8.06;100.00;95044.66;5087095;28;19963;-73
2023/10/29 04:19:16;;;;;;;;;;;;;;;8.11;100.00;95053.38;5086606;28;19961;-69
2023/10/29 04:21:42;;;;;;;;;;;;;;;8.17;100.00;95061.28;5086604;28;20026;-69
2023/10/29 04:24:08;;;;;;;;;;;;;;;8.18;100.00;95060.28;5086230;28;19978;-69
2023/10/29 04:26:34;;;;;;;;;;;;;;;8.17;100.00;95053.47;5086667;28;19993;-69
2023/10/29 04:29:00;;;;;;;;;;;;;;;8.15;100.00;95045.88;5086564;28;19951;-69
2023/10/29 04:31:25;;;;;;;;;;;;;;;8.16;100.00;95055.28;5086644;28;20203;-69
2023/10/29 04:33:51;;;;;;;;;;;;;;;8.17;100.00;95059.50;5086165;28;19958;-74
2023/10/29 04:36:18;;;;;;;;;;;;;;;8.18;100.00;95057.66;5084955;28;19967;-71
2023/10/29 04:38:44;;;;;;;;;;;;;;;8.16;100.00;95059.72;5085963;28;19965;-80
2023/10/29 04:41:10;;;;;;;;;;;;;;;8.16;100.00;95057.09;5086514;28;19958;-81
2023/10/29 04:43:35;;;;;;;;;;;;;;;8.13;100.00;95048.72;5085260;28;20231;-81
2023/10/29 04:46:01;;;;;;;;;;;;;;;8.14;100.00;95049.50;5085987;28;20014;-83
2023/10/29 04:48:27;;;;;;;;;;;;;;;8.12;100.00;95044.50;5086025;28;20330;-82
2023/10/29 04:50:53;;;;;;;;;;;;;;;8.10;100.00;95035.34;5086825;28;20030;-83
2023/10/29 04:53:19;;;;;;;;;;;;;;;8.09;100.00;95028.56;5086402;28;19952;-83
2023/10/29 04:55:45;;;;;;;;;;;;;;;8.05;100.00;95028.22;5086062;28;19959;-75
2023/10/29 04:58:11;;;;;;;;;;;;;;;8.03;100.00;95025.06;5086019;28;19961;-77
2023/10/29 05:00:36;;;;;;;;;;;;;;;7.99;100.00;95004.88;5086022;28;19957;-77
2023/10/29 05:03:02;;;;;;;;;;;;;;;7.97;100.00;95022.59;5085567;28;20306;-77
2023/10/29 05:05:30;;;;;;;;;;;;;;;7.94;100.00;95018.66;5085879;28;19955;-76
2023/10/29 05:07:56;;;;;;;;;;;;;;;7.92;100.00;95020.72;5085441;28;19940;-77
2023/10/29 05:10:25;;;;;;;;;;;;;;;7.89;100.00;95029.78;5085900;28;20260;-69
2023/10/29 05:12:50;;;;;;;;;;;;;;;7.88;100.00;95024.81;5086120;28;19957;-75
2023/10/29 05:15:17;;;;;;;;;;;;;;;7.88;100.00;95019.59;5067929;28;20002;-69
2023/10/29 05:17:43;;;;;;;;;;;;;;;7.88;100.00;95027.41;5084959;28;19962;-69
2023/10/29 05:20:10;;;;;;;;;;;;;;;7.86;100.00;95027.66;5084166;28;19970;-71
2023/10/29 05:22:36;;;;;;;;;;;;;;;7.86;100.00;95019.03;5085419;28;19948;-69
2023/10/29 05:25:03;;;;;;;;;;;;;;;7.86;100.00;95021.66;5085422;28;19961;-69
2023/10/29 05:27:29;;;;;;;;;;;;;;;7.86;100.00;95026.88;5085445;28;19957;-69
2023/10/29 05:29:54;;;;;;;;;;;;;;;7.87;100.00;95031.84;5085736;28;19998;-70
2023/10/29 05:32:21;;;;;;;;;;;;;;;7.88;100.00;95023.00;5084892;28;19952;-69
2023/10/29 05:34:46;;;;;;;;;;;;;;;7.90;100.00;95022.75;5085335;28;19967;-70
2023/10/29 05:37:12;;;;;;;;;;;;;;;7.91;100.00;95030.34;5085503;28;20292;-70
2023/10/29 05:39:38;;;;;;;;;;;;;;;7.95;100.00;95032.50;5084839;28;20027;-70
2023/10/29 05:42:04;;;;;;;;;;;;;;;7.96;100.00;95018.41;5085284;28;19950;-69
2023/10/29 05:44:31;;;;;;;;;;;;;;;7.98;100.00;95029.41;5085083;28;20165;-69
2023/10/29 05:46:57;;;;;;;;;;;;;;;8.00;100.00;95032.56;5084892;28;20227;-69
2023/10/29 05:49:22;;;;;;;;;;;;;;;8.03;100.00;95022.44;5084853;28;19959;-72
2023/10/29 05:51:49;;;;;;;;;;;;;;;8.03;100.00;95029.50;5083514;28;19995;-75
2023/10/29 05:54:15;;;;;;;;;;;;;;;8.05;100.00;95033.44;5084824;28;19961;-75
2023/10/29 05:56:41;;;;;;;;;;;;;;;8.06;100.00;95037.66;5084926;28;19953;-75
2023/10/29 05:59:07;;;;;;;;;;;;;;;8.06;100.00;95040.25;5084855;28;19986;-75
2023/10/29 06:01:33;;;;;;;;;;;;;;;8.08;100.00;95038.22;5084884;28;20184;-77
2023/10/29 06:03:58;;;;;;;;;;;;;;;8.09;100.00;95046.81;5084911;28;20259;-75
2023/10/29 06:06:24;;;;;;;;;;;;;;;8.10;100.00;95054.41;5084343;28;19944;-73
2023/10/29 06:08:50;;;;;;;;;;;;;;;8.12;100.00;95047.13;5084360;28;19954;-73
2023/10/29 06:11:16;;;;;;;;;;;;;;;8.14;100.00;95058.13;5084531;28;19957;-73
2023/10/29 06:13:44;;;;;;;;;;;;;;;8.14;100.00;95055.50;5084716;28;19958;-73
2023/10/29 06:16:10;;;;;;;;;;;;;;;8.16;100.00;95054.50;5084338;28;19951;-73
2023/10/29 06:18:36;;;;;;;;;;;;;;;8.18;100.00;95062.88;5084293;28;19986;-72
2023/10/29 06:21:02;;;;;;;;;;;;;;;8.21;100.00;95065.00;5084765;28;20223;-73
2023/10/29 06:23:28;;;;;;;;;;;;;;;8.23;100.00;95070.78;5084458;28;19956;-73
2023/10/29 06:25:54;;;;;;;;;;;;;;;8.26;100.00;95078.94;5084497;28;19983;-82
2023/10/29 06:28:19;;;;;;;;;;;;;;;8.30;100.00;95077.44;5083871;28;20016;-70
2023/10/29 06:30:45;;;;;;;;;;;;;;;8.33;100.00;95084.81;5084512;28;19956;-70
2023/10/29 06:33:11;;;;;;;;;;;;;;;8.38;100.00;95085.91;5084553;28;19979;-70
2023/10/29 06:35:38;;;;;;;;;;;;;;;8.42;100.00;95094.88;5084383;28;20030;-70
2023/10/29 06:38:04;;;;;;;;;;;;;;;8.44;100.00;95096.25;5083956;28;19958;-70
2023/10/29 06:40:30;;;;;;;;;;;;;;;8.44;100.00;95096.25;5084056;28;20228;-70
2023/10/29 06:42:55;;;;;;;;;;;;;;;8.46;100.00;95099.44;5084498;28;19985;-71
2023/10/29 06:45:21;;;;;;;;;;;;;;;8.46;100.00;95104.66;5084420;28;19965;-71
2023/10/29 06:47:47;;;;;;;;;;;;;;;8.47;100.00;95106.22;5084443;28;20143;-82
2023/10/29 06:50:13;;;;;;;;;;;;;;;8.50;100.00;95103.16;5084172;28;19959;-83
2023/10/29 06:52:39;;;;;;;;;;;;;;;8.53;100.00;95117.56;5083807;28;19959;-82
2023/10/29 06:55:08;;;;;;;;;;;;;;;8.60;100.00;95117.38;5084354;28;19963;-82
2023/10/29 06:57:35;;;;;;;;;;;;;;;8.63;100.00;95122.13;5082731;28;19971;-83
2023/10/29 07:00:01;;;;;;;;;;;;;;;8.68;100.00;95117.78;5084244;28;19962;-82
2023/10/29 07:02:28;;;;;;;;;;;;;;;8.71;100.00;95129.56;5084271;28;20242;-81
2023/10/29 07:04:54;;;;;;;;;;;;;;;8.74;100.00;95127.28;5084204;28;19963;-81
2023/10/29 07:07:21;;;;;;;;;;;;;;;8.78;100.00;95139.88;5065953;28;20197;-83
2023/10/29 07:09:46;;;;;;;;;;;;;;;8.80;100.00;95136.00;5082772;28;19967;-85
2023/10/29 07:12:13;;;;;;;;;;;;;;;8.83;100.00;95132.91;5066273;28;19962;-83
2023/10/29 07:14:39;;;;;;;;;;;;;;;8.90;100.00;95127.50;5084315;28;20224;-84
2023/10/29 07:17:05;;;;;;;;;;;;;;;9.00;100.00;95132.88;5084038;28;19953;-81
2023/10/29 07:19:30;;;;;;;;;;;;;;;9.11;100.00;95126.78;5082578;28;19998;-71
2023/10/29 07:21:56;;;;;;;;;;;;;;;9.20;100.00;95121.13;5083714;28;19961;-71
2023/10/29 07:24:22;;;;;;;;;;;;;;;9.28;100.00;95131.16;5083813;28;19954;-83
2023/10/29 07:26:48;;;;;;;;;;;;;;;9.40;100.00;95139.69;5084054;28;20146;-89
2023/10/29 07:29:14;;;;;;;;;;;;;;;9.57;100.00;95139.66;5082838;28;19993;-87
2023/10/29 07:31:40;;;;;;;;;;;;;;;9.77;100.00;95135.72;5082563;28;20026;-79
2023/10/29 07:34:06;;;;;;;;;;;;;;;9.94;100.00;95145.06;5083934;28;19961;-82
2023/10/29 07:36:32;;;;;;;;;;;;;;;10.11;100.00;95131.88;5083489;28;19953;-84
2023/10/29 07:38:57;;;;;;;;;;;;;;;10.29;100.00;95141.25;5082904;28;20043;-76
2023/10/29 07:41:23;;;;;;;;;;;;;;;10.48;100.00;95146.94;5087431;28;19995;-72
2023/10/29 07:43:49;;;;;;;;;;;;;;;10.64;100.00;95144.44;5085996;28;19960;-72
2023/10/29 07:46:15;;;;;;;;;;;;;;;10.79;100.00;95143.75;5088004;28;19958;-72
2023/10/29 07:48:42;;;;;;;;;;;;;;;10.82;100.00;95149.31;5087215;28;19978;-72
2023/10/29 07:51:09;;;;;;;;;;;;;;;10.79;100.00;95136.69;5087683;28;19950;-72
2023/10/29 07:53:34;;;;;;;;;;;;;;;10.76;100.00;95145.84;5087226;28;19965;-72
2023/10/29 07:56:10;;;;;;;;;;;;;;;10.74;100.00;95153.16;5087229;28;19958;-76
2023/10/29 07:58:37;;;;;;;;;;;;;;;10.70;100.00;95138.97;5087387;28;19968;-70
2023/10/29 08:01:03;;;;;;;;;;;;;;;10.69;100.00;95113.81;5087315;28;19965;-70
2023/10/29 08:03:28;;;;;;;;;;;;;;;10.67;100.00;95143.94;5086696;28;19943;-70
2023/10/29 08:05:54;;;;;;;;;;;;;;;10.66;100.00;95139.72;5086960;28;19958;-69
2023/10/29 08:08:20;;;;;;;;;;;;;;;10.65;100.00;95136.31;5086779;28;19958;-69
2023/10/29 08:10:46;;;;;;;;;;;;;;;10.65;100.00;95157.28;5087111;28;19978;-69
2023/10/29 08:13:12;;;;;;;;;;;;;;;10.67;100.00;95162.28;5085545;28;20242;-69
2023/10/29 08:15:38;;;;;;;;;;;;;;;10.69;100.00;95171.50;5087180;28;19965;-70
2023/10/29 08:18:04;;;;;;;;;;;;;;;10.71;100.00;95174.66;5086792;28;20036;-69
2023/10/29 08:20:30;;;;;;;;;;;;;;;10.74;100.00;95179.38;5085301;28;20253;-70
2023/10/29 08:22:56;;;;;;;;;;;;;;;10.77;100.00;95189.38;5086744;28;19952;-70
2023/10/29 08:25:22;;;;;;;;;;;;;;;10.81;100.00;95189.66;5086676;28;19989;-70
2023/10/29 08:27:47;;;;;;;;;;;;;;;10.84;100.00;95165.56;5086778;28;19948;-69
2023/10/29 08:30:13;;;;;;;;;;;;;;;10.91;100.00;95171.38;5086772;28;19962;-71
2023/10/29 08:32:39;;;;;;;;;;;;;;;11.00;100.00;95186.66;5086680;28;19950;-77
2023/10/29 08:35:06;;;;;;;;;;;;;;;11.06;100.00;95183.03;5086738;28;19962;-73
2023/10/29 08:37:32;;;;;;;;;;;;;;;11.09;100.00;95159.72;5086147;28;20258;-70
2023/10/29 08:39:59;;;;;;;;;;;;;;;11.14;100.00;95174.69;5086575;28;19954;-69
2023/10/29 08:42:26;;;;;;;;;;;;;;;11.17;100.00;95177.63;5086669;28;19955;-70
2023/10/29 08:44:56;;;;;;;;;;;;;;;11.20;100.00;95167.66;5086426;28;20002;-70
2023/10/29 08:47:25;;;;;;;;;;;;;;;11.22;100.00;95178.69;5086225;28;19962;-70
2023/10/29 08:49:51;;;;;;;;;;;;;;;11.29;100.00;95187.91;5086115;28;20137;-69
2023/10/29 08:52:17;;;;;;;;;;;;;;;11.42;100.00;95189.31;5085563;28;19954;-69
2023/10/29 08:54:44;;;;;;;;;;;;;;;11.55;100.00;95183.63;5086230;28;20264;-73
2023/10/29 08:57:10;;;;;;;;;;;;;;;11.66;100.00;95191.56;5086238;28;19960;-73
2023/10/29 08:59:36;;;;;;;;;;;;;;;11.74;100.00;95172.69;5086573;28;19973;-73
2023/10/29 09:02:02;;;;;;;;;;;;;;;11.82;100.00;95184.50;5086224;28;20001;-73
2023/10/29 09:04:28;;;;;;;;;;;;;;;11.90;100.00;95190.09;5086072;28;19986;-73
2023/10/29 09:06:54;;;;;;;;;;;;;;;12.02;100.00;95176.75;5085617;28;20074;-73
2023/10/29 09:09:20;;;;;;;;;;;;;;;12.08;100.00;95148.66;5085625;28;19966;-73
2023/10/29 09:11:46;;;;;;;;;;;;;;;12.10;100.00;95157.06;5085669;28;20225;-74
2023/10/29 09:14:13;;;;;;;;;;;;;;;12.16;100.00;95162.09;5085567;28;19968;-73
2023/10/29 09:16:39;;;;;;;;;;;;;;;12.24;100.00;95146.84;5085956;28;20230;-73
2023/10/29 09:19:05;;;;;;;;;;;;;;;12.32;100.00;95144.50;5085148;28;19964;-73
2023/10/29 09:21:31;;;;;;;;;;;;;;;12.34;100.00;95139.75;5085578;28;19980;-73
2023/10/29 09:23:56;;;;;;;;;;;;;;;12.37;100.00;95138.47;5085612;28;19987;-73
2023/10/29 09:26:22;;;;;;;;;;;;;;;12.35;100.00;95143.97;5085559;28;19952;-74
2023/10/29 09:28:48;;;;;;;;;;;;;;;12.41;100.00;95138.72;5085780;28;20260;-75
2023/10/29 09:31:16;;;;;;;;;;;;;;;12.46;100.00;95151.88;5085072;28;19938;-74
2023/10/29 09:33:42;;;;;;;;;;;;;;;12.50;100.00;95103.78;5085211;28;19955;-73
2023/10/29 09:36:08;;;;;;;;;;;;;;;12.58;100.00;95087.47;5084984;28;19964;-73
2023/10/29 09:38:34;;;;;;;;;;;;;;;12.58;100.00;95092.72;5085223;28;19970;-73
2023/10/29 09:41:00;;;;;;;;;;;;;;;12.56;100.00;95096.69;5084976;28;20001;-73
2023/10/29 09:43:26;;;;;;;;;;;;;;;12.53;100.00;95108.50;5084485;28;20000;-73
2023/10/29 09:45:53;;;;;;;;;;;;;;;12.51;100.00;95120.34;5085074;28;20017;-73
2023/10/29 09:48:19;;;;;;;;;;;;;;;12.46;100.00;95101.94;5084639;28;19967;-80
2023/10/29 09:50:45;;;;;;;;;;;;;;;12.42;100.00;95125.31;5085139;28;19952;-70
2023/10/29 09:53:12;;;;;;;;;;;;;;;12.41;100.00;95123.75;5083802;28;19962;-69
2023/10/29 09:55:38;;;;;;;;;;;;;;;12.38;100.00;95114.53;5085281;28;20261;-70
2023/10/29 09:58:04;;;;;;;;;;;;;;;12.37;100.00;95102.44;5084999;28;19980;-70
2023/10/29 10:00:31;;;;;;;;;;;;;;;12.39;100.00;95094.31;5084506;28;19941;-70
2023/10/29 10:02:57;;;;;;;;;;;;;;;12.40;100.00;95090.63;5084989;28;20138;-70
2023/10/29 10:05:28;;;;;;;;;;;;;;;12.43;100.00;95110.34;5083742;28;19957;-73
2023/10/29 10:07:55;;;;;;;;;;;;;;;12.46;100.00;95101.94;5084558;28;19954;-80
2023/10/29 10:10:21;;;;;;;;;;;;;;;12.49;100.00;95098.78;5083371;28;20262;-79
2023/10/29 10:12:48;;;;;;;;;;;;;;;12.52;100.00;95078.00;5084565;28;19966;-79
2023/10/29 10:15:15;;;;;;;;;;;;;;;12.55;100.00;95071.41;5084580;28;20131;-79
2023/10/29 10:17:51;;;;;;;;;;;;;;;12.63;100.00;95085.91;5084719;28;19956;-80
2023/10/29 10:20:21;;;;;;;;;;;;;;;12.72;100.00;95087.72;5084664;28;19956;-80
2023/10/29 10:22:55;;;;;;;;;;;;;;;12.80;100.00;95081.91;5084839;28;19984;-79
2023/10/29 10:25:23;;;;;;;;;;;;;;;12.88;100.00;95083.22;5084258;28;19968;-70
2023/10/29 10:27:49;;;;;;;;;;;;;;;12.96;100.00;95074.81;5084190;28;19959;-79
2023/10/29 10:30:32;;;;;;;;;;;;;;;13.02;100.00;95074.78;5084327;28;19968;-79
2023/10/29 10:33:14;;;;;;;;;;;;;;;13.08;100.00;95085.06;5083375;28;19958;-78
2023/10/29 10:35:43;;;;;;;;;;;;;;;13.13;100.00;95063.19;5083207;28;20149;-79
2023/10/29 10:38:10;;;;;;;;;;;;;;;13.17;100.00;95062.38;5082920;28;19970;-78
2023/10/29 10:40:36;;;;;;;;;;;;;;;13.23;100.00;95047.38;5083320;28;19985;-77
2023/10/29 10:43:04;;;;;;;;;;;;;;;13.30;100.00;95076.06;5084576;28;19951;-79
2023/10/29 10:45:31;;;;;;;;;;;;;;;13.35;100.00;95076.03;5083916;28;19942;-72
2023/10/29 10:48:06;;;;;;;;;;;;;;;13.41;100.00;95069.69;5084590;28;19971;-73
2023/10/29 10:50:32;;;;;;;;;;;;;;;13.46;100.00;95077.59;5084274;28;19954;-72
2023/10/29 10:52:58;;;;;;;;;;;;;;;13.50;100.00;95076.00;5084062;28;19955;-73
2023/10/29 10:55:25;;;;;;;;;;;;;;;13.54;100.00;95063.06;5084307;28;20177;-73
2023/10/29 10:57:51;;;;;;;;;;;;;;;13.57;100.00;95065.94;5083942;28;19961;-73
2023/10/29 11:00:18;;;;;;;;;;;;;;;13.60;100.00;95067.25;5083982;28;20285;-73
2023/10/29 11:02:44;;;;;;;;;;;;;;;13.64;100.00;95064.88;5084210;28;20228;-78
2023/10/29 11:05:11;;;;;;;;;;;;;;;13.66;100.00;95055.63;5084065;28;20008;-70
2023/10/29 11:07:38;;;;;;;;;;;;;;;13.67;100.00;95070.41;5083763;28;20020;-70
2023/10/29 11:10:05;;;;;;;;;;;;;;;13.68;100.00;95079.06;5082904;28;19953;-70
2023/10/29 11:12:37;;;;;;;;;;;;;;;13.67;100.00;95078.31;5083681;28;19947;-71
2023/10/29 11:15:16;;;;;;;;;;;;;;;13.68;100.00;95065.91;5085425;28;19962;-71
2023/10/29 11:17:58;;;;;;;;;;;;;;;13.69;100.00;95062.19;5088361;28;20241;-70
2023/10/29 11:20:36;;;;;;;;;;;;;;;13.73;100.00;95044.78;5088182;28;19959;-74
2023/10/29 11:23:15;;;;;;;;;;;;;;;13.77;100.00;95041.38;5088190;28;19956;-72
2023/10/29 11:25:41;;;;;;;;;;;;;;;13.82;100.00;95032.66;5088029;28;19956;-73
2023/10/29 11:28:26;;;;;;;;;;;;;;;13.89;100.00;95033.13;5087964;28;20269;-73
2023/10/29 11:31:10;;;;;;;;;;;;;;;13.97;100.00;95023.84;5088140;28;19960;-72
2023/10/29 11:33:36;;;;;;;;;;;;;;;14.09;100.00;95000.56;5087411;28;19951;-73
2023/10/29 11:36:20;;;;;;;;;;;;;;;14.20;100.00;94980.97;5087147;28;19973;-73
2023/10/29 11:38:46;;;;;;;;;;;;;;;14.36;100.00;94996.66;5087848;28;19961;-70
2023/10/29 11:41:31;;;;;;;;;;;;;;;14.49;100.00;94945.91;5087658;28;19963;-70
2023/10/29 11:44:20;;;;;;;;;;;;;;;14.66;100.00;94913.84;5087605;28;19989;-71
2023/10/29 11:46:55;;;;;;;;;;;;;;;14.80;100.00;94903.38;5087645;28;19963;-70
2023/10/29 11:49:25;;;;;;;;;;;;;;;14.89;100.00;94892.97;5087571;28;19949;-70
2023/10/29 11:51:55;;;;;;;;;;;;;;;14.97;100.00;94909.00;5087509;28;19962;-70
2023/10/29 11:54:22;;;;;;;;;;;;;;;15.09;100.00;94897.22;5087302;28;19958;-70
2023/10/29 11:56:48;;;;;;;;;;;;;;;15.26;100.00;94908.06;5087322;28;19967;-75
2023/10/29 11:59:14;;;;;;;;;;;;;;;15.40;98.44;94889.66;5085986;28;19966;-71
2023/10/29 12:01:44;;;;;;;;;;;;;;;15.53;95.64;94854.59;5087351;28;20105;-71
2023/10/29 12:04:10;;;;;;;;;;;;;;;15.73;98.32;94887.13;5087344;28;19962;-71
2023/10/29 12:06:37;;;;;;;;;;;;;;;15.96;90.86;94854.47;5087482;28;19948;-71
2023/10/29 12:09:13;;;;;;;;;;;;;;;16.24;95.18;94886.25;5087055;28;19956;-70
2023/10/29 12:11:38;;;;;;;;;;;;;;;16.40;91.67;94890.19;5087188;28;19955;-71
2023/10/29 12:14:04;;;;;;;;;;;;;;;16.46;91.64;94948.28;5086867;28;20222;-72
2023/10/29 12:16:31;;;;;;;;;;;;;;;16.48;90.81;94965.44;5087128;28;19954;-76
2023/10/29 12:18:56;;;;;;;;;;;;;;;16.52;91.55;94968.31;5086733;28;19968;-80
2023/10/29 12:21:22;;;;;;;;;;;;;;;16.61;90.38;94983.22;5086822;28;19957;-80
2023/10/29 12:23:49;;;;;;;;;;;;;;;16.72;92.08;94991.00;5085391;28;19964;-79
2023/10/29 12:26:15;;;;;;;;;;;;;;;16.74;89.88;94989.63;5085244;28;20124;-80
2023/10/29 12:28:40;;;;;;;;;;;;;;;16.75;89.13;94977.94;5086818;28;19961;-80
2023/10/29 12:31:21;;;;;;;;;;;;;;;16.75;94.70;94996.47;5085448;28;19957;-79
2023/10/29 12:33:54;;;;;;;;;;;;;;;16.70;94.01;94990.50;5086608;28;19958;-80
2023/10/29 12:36:20;;;;;;;;;;;;;;;16.63;88.80;94972.31;5086264;28;19958;-73
2023/10/29 12:38:46;;;;;;;;;;;;;;;16.57;91.73;94974.28;5086236;28;20012;-73
2023/10/29 12:41:14;;;;;;;;;;;;;;;16.51;91.96;94961.44;5086484;28;19954;-73